Aviation Digital Data Service (ADDS)

Output produced by METARs form (1837 UTC 16 December 2017)
found at http://www.aviationweather.gov/adds/metars/
 
KLNS 161753Z 24013KT 10SM OVC045 04/M03 A3002 RMK AO2 SLP171 T00391033 10039 21039 56018
KLNS 161653Z 24013KT 10SM FEW044 03/M04 A3003 RMK AO2 SLP172 T00331039
KLNS 161553Z 21007KT 10SM BKN045 02/M04 A3005 RMK AO2 SLP182 T00171044
KLNS 161453Z 21006KT 10SM BKN045 BKN050 M01/M06 A3008 RMK AO2 SLP189 T10061061 50009
KLNS 161353Z 22009KT 10SM OVC045 M02/M07 A3008 RMK AO2 SLP192 T10171072
KLNS 161253Z 21008KT 10SM BKN049 OVC060 M03/M08 A3006 RMK AO2 SLP186 T10281078
KLNS 161231Z 21009KT 10SM BKN060 M03/M08 A3006 RMK AO2 T10281078
KLNS 161153Z 22007KT 10SM SCT050 M03/M08 A3005 RMK AO2 SLP180 70004 T10331078 11033 21100 53012
KLNS 161053Z 24005KT 9SM BKN065 M08/M09 A3003 RMK AO2 SLP174 T10831094
KLNS 160953Z AUTO 00000KT 3SM BR FEW055 M09/M10 A3001 RMK AO2 SLP168 T10941100
KLNS 160949Z AUTO 00000KT 2 1/2SM BR FEW055 M09/M09 A3001 RMK AO2
KLNS 160853Z AUTO 00000KT 6SM BR CLR M08/M09 A3001 RMK AO2 SLP168 T10781089 51013
KLNS 160753Z AUTO 06004KT 4SM BR OVC055 M08/M08 A3001 RMK AO2 SLP168 T10781083
KLNS 160653Z AUTO 00000KT 4SM BR OVC055 M07/M08 A2999 RMK AO2 SLP160 T10721083
KLNS 160553Z AUTO 15004KT 3SM BR BKN060 M08/M08 A2997 RMK AO2 SLP155 I6001 T10781083 11044 21100 53008
KLNS 160522Z AUTO 34003KT 3SM BR SCT048 OVC060 M07/M08 A2998 RMK AO2 T10721083
KLNS 160518Z AUTO 32003KT 1 1/4SM BR SCT048 OVC060 M07/M09 A2997 RMK AO2 T10721089
KLNS 160505Z AUTO 00000KT 1/4SM FZFG SCT048 OVC060 M08/M08 A2997 RMK AO2 T10831083
KLNS 160453Z AUTO 00000KT 1SM BR FEW048 OVC060 M08/M08 A2996 RMK AO2 SLP151 T10781078 410331100
KLNS 160440Z AUTO 00000KT 3/4SM BR FEW050 OVC060 M07/M08 A2995 RMK AO2 T10721083
KLNS 160436Z AUTO 00000KT 2 1/2SM BR OVC060 M08/M08 A2996 RMK AO2 T10781083
KLNS 160423Z AUTO 00000KT 1SM BR FEW004 BKN060 M08/M08 A2995 RMK AO2 T10781083
KLNS 160411Z AUTO 00000KT 1/4SM FZFG FEW005 SCT060 M09/M10 A2996 RMK AO2 T10941100
KLNS 160359Z AUTO 00000KT 1/4SM FZFG VV005 M09/M09 A2996 RMK AO2 T10941094
KLNS 160353Z 00000KT 1/2SM FZFG VV005 M08/M08 A2995 RMK AO2 SLP148 I1001 T10831083
KLNS 160351Z 00000KT 1/2SM FZFG VV005 M08/M08 A2995 RMK AO2 I1001
KLNS 160341Z 00000KT 1/4SM FZFG SCT004 BKN050 M08/M08 A2995 RMK AO2 I1001 T10781078
KLNS 160333Z 00000KT 1/2SM FZFG FEW004 SCT050 M07/M08 A2995 RMK AO2 I1000 T10721078
KLNS 160328Z 00000KT 1 3/4SM BR SCT050 M07/M07 A2995 RMK AO2 I1000 T10671072
KLNS 160319Z 00000KT 3/4SM BR FEW055 M07/M07 A2995 RMK AO2 I1000 T10671072
KLNS 160303Z 00000KT 1/4SM FZFG CLR M08/M08 A2995 RMK AO2 T10831083
KLNS 160255Z 00000KT 1 3/4SM BR CLR M07/M07 A2995 RMK AO2 T10721072
KLNS 160253Z 00000KT 3SM BR CLR M07/M07 A2995 RMK AO2 SLP147 I1000 I3000 T10671067 51008
KLNS 160153Z 26004KT 5SM BR OVC065 M05/M06 A2994 RMK AO2 SLP145 T10501056
KLNS 160102Z 26004KT 5SM BR SCT012 M06/M06 A2994 RMK AO2 T10561061
KLNS 160053Z 27004KT 6SM BR BKN012 M06/M06 A2994 RMK AO2 SLP144 T10561061
KLNS 152353Z 28003KT 8SM OVC012 M04/M06 A2993 RMK AO2 SLP139 60004 T10441056 11039 21050 53002
KLNS 152306Z 26003KT 8SM OVC013 M04/M06 A2992 RMK AO2 T10441056
KLNS 152253Z 00000KT 8SM OVC015 M05/M06 A2992 RMK AO2 SNE12 SLP137 P0000 T10501056
KLNS 152200Z 00000KT 5SM -SN BR SCT008 BKN029 OVC060 M04/M06 A2991 RMK AO2 P0000 T10441056
KLNS 152153Z 00000KT 3SM -SN BR SCT007 SCT029 OVC060 M04/M06 A2991 RMK AO2 SLP133 P0001 T10441056
KLNS 152141Z 00000KT 3SM -SN BR SCT007 SCT050 OVC060 M05/M06 A2991 RMK AO2 P0001 T10501056
KLNS 152128Z 00000KT 3SM -SN BR FEW036 SCT050 OVC060 M05/M05 A2991 RMK AO2 P0001 T10501050
KLNS 152115Z 12003KT 2SM -SN BR SCT023 OVC050 M05/M05 A2991 RMK AO2 P0001 T10501050
KLNS 152109Z 12003KT 1 1/2SM -SN BR BKN023 OVC050 M05/M06 A2991 RMK AO2 P0001 T10501056
KLNS 152101Z 12003KT 3/4SM -SN BR OVC021 M05/M06 A2992 RMK AO2 P0001 T10501056
KLNS 152053Z 00000KT 1SM -SN BR VV018 M05/M05 A2992 RMK AO2 SLP137 P0003 60003 T10501050 56006
KLNS 152048Z 00000KT 3/4SM -SN BR VV017 M05/M06 A2992 RMK AO2 P0003
KLNS 152004Z 00000KT 1/2SM SN FZFG VV013 M04/M06 A2993 RMK AO2 P0001 T10441061
KLNS 151953Z 00000KT 1/2SM SN FZFG VV016 M04/M06 A2993 RMK AO2 SLP140 P0000 T10441061
KLNS 151938Z 00000KT 3/4SM -SN BKN024 OVC047 M04/M07 A2993 RMK AO2 P0000 T10441072
KLNS 151932Z 25003KT 1 3/4SM -SN BKN031 OVC048 M04/M07 A2993 RMK AO2 P0000 T10391072
KLNS 151904Z 00000KT 4SM -SN OVC050 M04/M07 A2993 RMK AO2 P0000 T10391072
KLNS 151853Z 00000KT 2 1/2SM -SN BKN047 OVC055 M04/M08 A2994 RMK AO2 SNB10 SLP143 P0000 T10391078
KLNS 151753Z 20003KT 10SM BKN050 OVC055 M04/M09 A2996 RMK AO2 SLP153 T10391089 11033 21072 58037
KLNS 151653Z 16007KT 10SM OVC055 M03/M10 A3001 RMK AO2 SLP166 T10331100
KLNS 151553Z 00000KT 10SM OVC042 M04/M09 A3005 RMK AO2 SLP181 T10441089
KLNS 151453Z 10003KT 10SM OVC046 M05/M09 A3008 RMK AO2 SLP190 T10501089 58003
KLNS 151353Z 08003KT 10SM OVC047 M06/M09 A3008 RMK AO2 SLP190 T10611094
KLNS 151253Z 00000KT 10SM OVC045 M07/M10 A3009 RMK AO2 SLP194 T10671100
KLNS 151153Z 07004KT 10SM OVC042 M07/M10 A3009 RMK AO2 SLP193 T10721100 11056 21100 58003
KLNS 151053Z 00000KT 10SM FEW044 M09/M12 A3009 RMK AO2 SLP197 T10941117
KLNS 150953Z AUTO 00000KT 10SM CLR M08/M12 A3009 RMK AO2 SLP195 T10831117
KLNS 150853Z AUTO 00000KT 10SM CLR M09/M12 A3009 RMK AO2 SLP197 T10891117 56002
KLNS 150753Z AUTO 00000KT 10SM CLR M08/M12 A3009 RMK AO2 SLP196 T10831117
KLNS 150653Z AUTO 00000KT 10SM CLR M07/M12 A3009 RMK AO2 SLP195 T10721122